createdAt,value
2023-02-15T00:00:15.717Z,5.59
2023-02-15T00:02:43.789Z,5.58
2023-02-15T00:05:13.360Z,5.61
2023-02-15T00:07:41.475Z,5.59
2023-02-15T00:10:11.961Z,5.56
2023-02-15T00:12:40.027Z,5.48
2023-02-15T00:15:08.988Z,5.42
2023-02-15T00:17:36.967Z,5.53
2023-02-15T00:20:05.557Z,5.49
2023-02-15T00:22:34.999Z,5.51
2023-02-15T00:25:03.248Z,5.52
2023-02-15T00:27:31.305Z,5.55
2023-02-15T00:29:59.470Z,5.57
2023-02-15T00:32:27.503Z,5.53
2023-02-15T00:34:55.486Z,5.55
2023-02-15T00:37:25.868Z,5.49
2023-02-15T00:39:55.257Z,5.52
2023-02-15T00:42:23.262Z,5.55
2023-02-15T00:44:51.330Z,5.52
2023-02-15T00:47:19.395Z,5.54
2023-02-15T00:49:47.530Z,5.57
2023-02-15T00:52:15.519Z,5.54
2023-02-15T00:54:43.541Z,5.59
2023-02-15T00:57:12.875Z,5.61
2023-02-15T00:59:40.889Z,5.53
2023-02-15T01:02:08.969Z,5.42
2023-02-15T01:04:36.995Z,5.44
2023-02-15T01:07:05.118Z,5.32
2023-02-15T01:09:34.876Z,5.35
2023-02-15T01:12:05.109Z,5.40
2023-02-15T01:14:34.481Z,5.40
2023-02-15T01:17:02.476Z,5.43
2023-02-15T01:19:30.498Z,5.43
2023-02-15T01:21:58.563Z,5.38
2023-02-15T01:24:26.520Z,5.25
2023-02-15T01:26:54.648Z,5.22
2023-02-15T01:29:22.958Z,5.09
2023-02-15T01:31:52.529Z,5.20
2023-02-15T01:34:20.651Z,5.23
2023-02-15T01:36:49.155Z,5.25
2023-02-15T01:39:17.186Z,5.22
2023-02-15T01:41:45.314Z,5.11
2023-02-15T01:44:49.342Z,5.10
2023-02-15T01:47:24.136Z,5.12
2023-02-15T01:50:05.327Z,5.20
2023-02-15T01:52:35.708Z,5.20
2023-02-15T01:55:07.174Z,5.12
2023-02-15T01:57:36.296Z,5.07
2023-02-15T02:00:08.724Z,5.08
2023-02-15T02:02:46.002Z,4.99
2023-02-15T02:05:14.213Z,4.97
2023-02-15T02:07:46.414Z,4.96
2023-02-15T02:10:18.485Z,4.94
2023-02-15T02:12:50.166Z,4.90
2023-02-15T02:15:19.251Z,4.82
2023-02-15T02:18:08.798Z,4.87
2023-02-15T02:21:02.453Z,4.92
2023-02-15T02:23:57.758Z,4.95
2023-02-15T02:27:14.658Z,4.87
2023-02-15T02:30:10.988Z,4.85
2023-02-15T02:33:15.090Z,4.83
2023-02-15T02:35:56.110Z,4.78
2023-02-15T02:38:32.555Z,4.72
2023-02-15T02:41:18.857Z,4.71
2023-02-15T02:43:53.831Z,4.78
2023-02-15T02:46:28.756Z,4.69
2023-02-15T02:48:59.168Z,4.71
2023-02-15T02:51:27.228Z,4.68
2023-02-15T02:54:00.195Z,4.72
2023-02-15T02:56:33.863Z,4.71
2023-02-15T02:59:09.546Z,4.71
2023-02-15T03:01:43.323Z,4.66
2023-02-15T03:04:17.339Z,4.58
2023-02-15T03:06:52.797Z,4.57
2023-02-15T03:09:35.459Z,4.47
2023-02-15T03:12:05.182Z,4.41
2023-02-15T03:14:38.665Z,4.47
2023-02-15T03:17:11.102Z,4.44
2023-02-15T03:19:42.121Z,4.46
2023-02-15T03:22:16.935Z,4.50
2023-02-15T03:24:51.231Z,4.49
2023-02-15T03:27:24.022Z,4.50
2023-02-15T03:29:58.820Z,4.54
2023-02-15T03:32:30.073Z,4.55
2023-02-15T03:35:00.273Z,4.49
2023-02-15T03:37:37.446Z,4.46
2023-02-15T03:40:27.110Z,4.43
2023-02-15T03:43:03.285Z,4.56
2023-02-15T03:45:35.243Z,4.44
2023-02-15T03:48:09.289Z,4.39
2023-02-15T03:50:58.926Z,4.28
2023-02-15T03:53:28.146Z,4.22
2023-02-15T03:55:57.517Z,4.08
2023-02-15T03:58:42.996Z,4.08
2023-02-15T04:01:40.348Z,4.10
2023-02-15T04:04:16.777Z,4.07
2023-02-15T04:06:51.522Z,4.18
2023-02-15T04:09:37.703Z,4.19
2023-02-15T04:12:06.407Z,4.19
2023-02-15T04:14:52.129Z,4.19
2023-02-15T04:17:20.511Z,4.20
2023-02-15T04:20:05.947Z,4.19
2023-02-15T04:22:52.886Z,4.14
2023-02-15T04:25:21.139Z,3.99
2023-02-15T04:27:52.232Z,3.92
2023-02-15T04:30:23.255Z,3.81
2023-02-15T04:32:51.368Z,3.92
2023-02-15T04:35:19.664Z,3.90
2023-02-15T04:37:49.072Z,3.73
2023-02-15T04:40:19.671Z,3.75
2023-02-15T04:42:50.101Z,3.80
2023-02-15T04:45:18.960Z,3.71
2023-02-15T04:47:47.050Z,3.72
2023-02-15T04:50:15.110Z,3.78
2023-02-15T04:52:43.144Z,3.82
2023-02-15T04:55:12.576Z,3.82
2023-02-15T04:57:40.805Z,3.74
2023-02-15T05:00:10.681Z,3.64
2023-02-15T05:02:38.787Z,3.68
2023-02-15T05:05:08.251Z,3.73
2023-02-15T05:07:36.274Z,3.84
2023-02-15T05:10:05.004Z,3.70
2023-02-15T05:12:34.450Z,3.79
2023-02-15T05:15:02.478Z,3.85
2023-02-15T05:17:30.517Z,3.91
2023-02-15T05:19:58.525Z,3.95
2023-02-15T05:22:26.649Z,3.82
2023-02-15T05:25:12.441Z,3.90
2023-02-15T05:27:59.371Z,3.90
2023-02-15T05:30:27.635Z,3.93
2023-02-15T05:32:55.846Z,3.88
2023-02-15T05:35:24.062Z,3.95
2023-02-15T05:37:52.130Z,3.98
2023-02-15T05:40:20.471Z,3.99
2023-02-15T05:42:49.846Z,3.87
2023-02-15T05:45:19.134Z,3.80
2023-02-15T05:47:48.603Z,3.69
2023-02-15T05:50:17.162Z,3.60
2023-02-15T05:52:45.308Z,3.54
2023-02-15T05:55:13.545Z,3.60
2023-02-15T05:57:41.657Z,3.57
2023-02-15T06:00:13.263Z,3.40
2023-02-15T06:02:41.652Z,3.36
2023-02-15T06:05:14.193Z,3.49
2023-02-15T06:07:45.831Z,3.54
2023-02-15T06:10:14.158Z,3.61
2023-02-15T06:12:42.219Z,3.63
2023-02-15T06:15:11.910Z,3.67
2023-02-15T06:17:40.169Z,3.64
2023-02-15T06:20:10.303Z,3.67
2023-02-15T06:22:38.459Z,3.71
2023-02-15T06:25:10.935Z,3.69
2023-02-15T06:27:39.282Z,3.68
2023-02-15T06:30:09.771Z,3.74
2023-02-15T06:32:39.319Z,3.85
2023-02-15T06:35:08.068Z,3.86
2023-02-15T06:37:36.103Z,3.88
2023-02-15T06:40:05.128Z,3.95
2023-02-15T06:42:33.350Z,3.96
2023-02-15T06:45:01.574Z,3.91
2023-02-15T06:47:29.673Z,3.88
2023-02-15T06:49:59.475Z,3.89
2023-02-15T06:52:28.028Z,3.98
2023-02-15T06:54:56.135Z,3.96
2023-02-15T06:57:24.185Z,3.91
2023-02-15T06:59:53.776Z,3.85
2023-02-15T07:02:21.818Z,3.89
2023-02-15T07:04:49.879Z,3.95
2023-02-15T07:07:19.675Z,3.97
2023-02-15T07:09:47.716Z,4.02
2023-02-15T07:12:33.311Z,4.01
2023-02-15T07:15:01.432Z,4.00
2023-02-15T07:17:38.083Z,4.04
2023-02-15T07:20:09.707Z,4.07
2023-02-15T07:22:39.633Z,4.12
2023-02-15T07:25:11.631Z,4.32
2023-02-15T07:27:40.793Z,4.29
2023-02-15T07:30:12.551Z,4.26
2023-02-15T07:33:04.246Z,4.35
2023-02-15T07:35:33.045Z,4.38
2023-02-15T07:38:03.207Z,4.51
2023-02-15T07:40:31.388Z,4.61
2023-02-15T07:43:00.538Z,4.54
2023-02-15T07:45:28.883Z,4.65
2023-02-15T07:47:56.996Z,4.78
2023-02-15T07:50:25.263Z,4.83
2023-02-15T07:52:53.355Z,4.76
2023-02-15T07:55:23.029Z,4.84
2023-02-15T07:57:54.868Z,4.95
2023-02-15T08:00:25.877Z,5.01
2023-02-15T08:03:15.739Z,5.06
2023-02-15T08:05:46.492Z,5.22
2023-02-15T08:08:30.712Z,5.38
2023-02-15T08:11:23.916Z,5.49
2023-02-15T08:13:57.491Z,5.69
2023-02-15T08:16:26.932Z,5.82
2023-02-15T08:18:55.130Z,5.83
2023-02-15T08:21:24.985Z,5.59
2023-02-15T08:23:53.672Z,5.33
2023-02-15T08:26:23.614Z,5.14
2023-02-15T08:28:53.195Z,5.06
2023-02-15T08:31:22.709Z,5.14
2023-02-15T08:33:52.827Z,5.58
2023-02-15T08:36:23.529Z,5.91
2023-02-15T08:38:51.794Z,6.23
2023-02-15T08:41:23.615Z,6.46
2023-02-15T08:43:55.260Z,6.66
2023-02-15T08:46:25.686Z,6.85
2023-02-15T08:48:54.146Z,6.96
2023-02-15T08:51:24.693Z,6.88
2023-02-15T08:53:55.371Z,6.91
2023-02-15T08:56:28.395Z,6.71
2023-02-15T08:58:56.873Z,6.71
2023-02-15T09:01:26.891Z,6.90
2023-02-15T09:04:00.100Z,6.88
2023-02-15T09:06:29.627Z,7.02
2023-02-15T09:08:58.480Z,6.73
2023-02-15T09:11:30.051Z,6.89
2023-02-15T09:14:00.991Z,7.16
2023-02-15T09:16:31.936Z,7.29
2023-02-15T09:19:02.062Z,7.44
2023-02-15T09:21:31.357Z,7.58
2023-02-15T09:24:02.045Z,7.70
2023-02-15T09:26:34.025Z,7.63
2023-02-15T09:29:04.497Z,7.65
2023-02-15T09:31:35.601Z,7.74
2023-02-15T09:34:04.071Z,7.43
2023-02-15T09:36:35.562Z,7.40
2023-02-15T09:39:09.544Z,7.51
2023-02-15T09:42:23.041Z,7.96
2023-02-15T09:45:27.090Z,8.02
2023-02-15T09:48:21.552Z,8.11
2023-02-15T09:51:05.424Z,8.45
2023-02-15T09:54:03.398Z,8.81
2023-02-15T09:56:38.369Z,9.08
2023-02-15T09:59:19.993Z,9.22
2023-02-15T10:02:00.764Z,9.46
2023-02-15T10:04:48.862Z,9.67
2023-02-15T10:07:35.597Z,9.75
2023-02-15T10:10:22.778Z,9.52
2023-02-15T10:13:10.615Z,9.53
2023-02-15T10:15:56.717Z,9.58
2023-02-15T10:18:48.727Z,9.66
2023-02-15T10:21:29.552Z,9.92
2023-02-15T10:24:22.314Z,10.15
2023-02-15T10:26:51.318Z,10.36
2023-02-15T10:29:32.248Z,10.51
2023-02-15T10:32:13.453Z,10.60
2023-02-15T10:34:45.363Z,10.47
2023-02-15T10:37:48.639Z,10.74
2023-02-15T10:40:27.109Z,10.99
2023-02-15T10:43:22.714Z,11.15
2023-02-15T10:46:03.967Z,11.20
2023-02-15T10:49:13.529Z,11.10
2023-02-15T10:51:56.014Z,11.18
2023-02-15T10:54:37.452Z,11.25
2023-02-15T10:57:14.351Z,11.28
2023-02-15T11:00:06.579Z,11.20
2023-02-15T11:02:53.255Z,11.28
2023-02-15T11:05:43.376Z,11.53
2023-02-15T11:08:13.923Z,11.80
2023-02-15T11:10:46.493Z,12.05
2023-02-15T11:13:18.947Z,11.78
2023-02-15T11:15:51.446Z,11.66
2023-02-15T11:18:28.292Z,11.68
2023-02-15T11:21:04.239Z,11.59
2023-02-15T11:23:37.505Z,11.44
2023-02-15T11:26:14.010Z,11.45
2023-02-15T11:28:51.142Z,11.47
2023-02-15T11:31:22.273Z,11.53
2023-02-15T11:33:55.219Z,11.62
2023-02-15T11:36:29.927Z,11.51
2023-02-15T11:39:04.696Z,11.55
2023-02-15T11:41:39.801Z,11.54
2023-02-15T11:44:16.305Z,11.55
2023-02-15T11:46:44.560Z,11.60
2023-02-15T11:49:29.378Z,11.64
2023-02-15T11:52:00.216Z,11.86
2023-02-15T11:54:31.672Z,11.79
2023-02-15T11:57:06.203Z,11.76
2023-02-15T11:59:38.317Z,11.88
2023-02-15T12:02:18.355Z,11.62
2023-02-15T12:04:52.948Z,11.62
2023-02-15T12:07:27.030Z,11.82
2023-02-15T12:10:05.124Z,11.69
2023-02-15T12:12:36.492Z,11.58
2023-02-15T12:15:07.805Z,11.58
2023-02-15T12:17:41.174Z,11.52
2023-02-15T12:20:27.006Z,11.28
2023-02-15T12:23:03.259Z,11.39
2023-02-15T12:25:38.295Z,11.22
2023-02-15T12:28:25.521Z,11.11
2023-02-15T12:30:55.604Z,11.06
2023-02-15T12:33:32.403Z,11.06
2023-02-15T12:36:05.653Z,11.03
2023-02-15T12:38:35.334Z,11.04
2023-02-15T12:41:06.577Z,11.17
2023-02-15T12:43:37.779Z,11.20
2023-02-15T12:46:25.394Z,11.27
2023-02-15T12:49:21.394Z,11.11
2023-02-15T12:51:52.579Z,11.20
2023-02-15T12:54:35.293Z,11.24
2023-02-15T12:57:23.581Z,11.21
2023-02-15T12:59:54.300Z,11.22
2023-02-15T13:02:28.781Z,11.11
2023-02-15T13:04:59.418Z,11.24
2023-02-15T13:07:33.531Z,11.35
2023-02-15T13:10:03.029Z,11.26
2023-02-15T13:12:34.569Z,11.35
2023-02-15T13:15:05.552Z,11.43
2023-02-15T13:17:35.725Z,11.47
2023-02-15T13:20:08.530Z,11.36
2023-02-15T13:22:43.863Z,11.40
2023-02-15T13:25:19.998Z,11.43
2023-02-15T13:27:54.907Z,11.48
2023-02-15T13:30:27.980Z,11.45
2023-02-15T13:33:00.101Z,11.44
2023-02-15T13:35:40.081Z,11.39
2023-02-15T13:38:38.718Z,11.39
2023-02-15T13:41:14.688Z,11.46
2023-02-15T13:43:54.514Z,11.62
2023-02-15T13:46:44.147Z,11.64
2023-02-15T13:49:27.062Z,11.68
2023-02-15T13:52:06.344Z,11.69
2023-02-15T13:54:50.546Z,11.80
2023-02-15T13:57:48.305Z,11.61
2023-02-15T14:00:24.365Z,11.64
2023-02-15T14:03:40.774Z,11.66
2023-02-15T14:06:26.846Z,11.67
2023-02-15T14:09:11.576Z,11.82
2023-02-15T14:11:49.255Z,12.05
2023-02-15T14:14:43.651Z,12.02
2023-02-15T14:17:21.896Z,11.88
2023-02-15T14:19:56.538Z,11.79
2023-02-15T14:22:33.658Z,11.86
2023-02-15T14:25:19.117Z,11.92
2023-02-15T14:27:58.218Z,11.94
2023-02-15T14:30:33.696Z,11.94
2023-02-15T14:33:07.753Z,12.00
2023-02-15T14:35:38.080Z,12.02
2023-02-15T14:38:15.685Z,12.21
2023-02-15T14:41:03.914Z,12.21
2023-02-15T14:43:48.720Z,12.20
2023-02-15T14:46:32.210Z,12.19
2023-02-15T14:49:11.302Z,12.15
2023-02-15T14:52:09.312Z,12.17
2023-02-15T14:55:01.026Z,12.10
2023-02-15T14:57:38.089Z,12.15
2023-02-15T15:00:39.988Z,12.11
2023-02-15T15:03:25.423Z,12.06
2023-02-15T15:06:00.984Z,12.15
2023-02-15T15:08:38.375Z,12.14
2023-02-15T15:11:45.661Z,12.00
2023-02-15T15:14:43.816Z,12.13
2023-02-15T15:17:14.947Z,12.10
2023-02-15T15:20:15.360Z,12.03
2023-02-15T15:22:44.856Z,11.97
2023-02-15T15:25:46.729Z,12.02
2023-02-15T15:28:59.992Z,11.74
2023-02-15T15:31:45.954Z,11.80
2023-02-15T15:35:01.786Z,11.83
2023-02-15T15:38:19.451Z,11.81
2023-02-15T15:41:24.002Z,11.81
2023-02-15T15:44:47.008Z,11.73
2023-02-15T15:47:39.807Z,11.80
2023-02-15T15:50:15.870Z,11.83
2023-02-15T15:52:51.159Z,11.86
2023-02-15T15:55:22.998Z,11.84
2023-02-15T15:57:55.500Z,11.89
2023-02-15T16:00:39.276Z,11.90
2023-02-15T16:03:07.895Z,11.88
2023-02-15T16:05:40.387Z,11.85
2023-02-15T16:08:09.320Z,11.85
2023-02-15T16:10:38.927Z,11.83
2023-02-15T16:13:09.309Z,11.83
2023-02-15T16:15:46.005Z,11.73
2023-02-15T16:18:17.837Z,11.74
2023-02-15T16:20:53.950Z,11.60
2023-02-15T16:23:54.743Z,11.65
2023-02-15T16:26:46.280Z,11.65
2023-02-15T16:29:20.764Z,11.62
2023-02-15T16:32:01.811Z,11.55
2023-02-15T16:34:33.390Z,11.44
2023-02-15T16:37:18.895Z,11.34
2023-02-15T16:39:49.413Z,11.20
2023-02-15T16:42:18.931Z,11.09
2023-02-15T16:44:53.503Z,11.09
2023-02-15T16:47:26.722Z,11.07
2023-02-15T16:50:00.586Z,11.07
2023-02-15T16:52:30.041Z,10.94
2023-02-15T16:55:01.729Z,10.90
2023-02-15T16:57:34.390Z,10.81
2023-02-15T17:00:09.663Z,10.65
2023-02-15T17:02:54.898Z,10.55
2023-02-15T17:05:25.321Z,10.20
2023-02-15T17:08:15.946Z,10.20
2023-02-15T17:11:12.878Z,10.03
2023-02-15T17:14:02.176Z,10.00
2023-02-15T17:16:32.896Z,10.00
2023-02-15T17:19:03.158Z,10.01
2023-02-15T17:21:35.379Z,10.02
2023-02-15T17:24:05.903Z,10.01
2023-02-15T17:26:38.064Z,9.98
2023-02-15T17:29:22.981Z,9.96
2023-02-15T17:31:54.226Z,9.91
2023-02-15T17:34:47.633Z,9.73
2023-02-15T17:37:28.250Z,9.74
2023-02-15T17:39:57.239Z,9.67
2023-02-15T17:42:27.052Z,9.63
2023-02-15T17:44:55.786Z,9.63
2023-02-15T17:47:27.829Z,9.63
2023-02-15T17:49:56.115Z,9.55
2023-02-15T17:52:32.079Z,9.46
2023-02-15T17:55:19.196Z,9.48
2023-02-15T17:57:48.659Z,9.45
2023-02-15T18:00:35.593Z,9.46
2023-02-15T18:03:21.359Z,9.40
2023-02-15T18:06:06.919Z,9.28
2023-02-15T18:08:52.522Z,9.27
2023-02-15T18:11:39.003Z,9.24
2023-02-15T18:14:11.300Z,9.14
2023-02-15T18:16:43.224Z,9.18
2023-02-15T18:19:18.301Z,9.15
2023-02-15T18:21:47.329Z,9.10
2023-02-15T18:24:21.858Z,9.06
2023-02-15T18:26:49.933Z,9.06
2023-02-15T18:29:19.442Z,9.02
2023-02-15T18:31:53.145Z,9.05
2023-02-15T18:34:29.240Z,9.02
2023-02-15T18:36:58.801Z,9.04
2023-02-15T18:39:35.196Z,8.93
2023-02-15T18:42:04.440Z,8.93
2023-02-15T18:44:34.026Z,8.91
2023-02-15T18:47:02.099Z,8.85
2023-02-15T18:49:30.127Z,8.83
2023-02-15T18:51:58.204Z,8.77
2023-02-15T18:54:27.001Z,8.79
2023-02-15T18:56:58.456Z,8.79
2023-02-15T18:59:30.427Z,8.79
2023-02-15T19:02:01.172Z,8.74
2023-02-15T19:04:29.308Z,8.74
2023-02-15T19:06:58.457Z,8.74
2023-02-15T19:09:27.803Z,8.61
2023-02-15T19:11:57.382Z,8.69
2023-02-15T19:14:29.287Z,8.74
2023-02-15T19:17:01.153Z,8.62
2023-02-15T19:19:54.321Z,8.71
2023-02-15T19:22:27.831Z,8.74
2023-02-15T19:24:59.445Z,8.70
2023-02-15T19:27:31.151Z,8.70
2023-02-15T19:30:03.289Z,8.67
2023-02-15T19:32:32.779Z,8.61
2023-02-15T19:35:00.894Z,8.59
2023-02-15T19:37:58.379Z,8.57
2023-02-15T19:40:31.399Z,8.55
2023-02-15T19:43:00.530Z,8.51
2023-02-15T19:45:31.370Z,8.46
2023-02-15T19:48:02.464Z,8.45
2023-02-15T19:50:34.091Z,8.39
2023-02-15T19:53:03.730Z,8.38
2023-02-15T19:55:34.464Z,8.36
2023-02-15T19:58:04.188Z,8.35
2023-02-15T20:00:35.044Z,8.33
2023-02-15T20:03:04.633Z,8.35
2023-02-15T20:05:38.290Z,8.38
2023-02-15T20:08:08.864Z,8.37
2023-02-15T20:10:37.246Z,8.35
2023-02-15T20:13:05.342Z,8.30
2023-02-15T20:15:36.483Z,8.32
2023-02-15T20:18:06.817Z,8.31
2023-02-15T20:20:42.530Z,8.30
2023-02-15T20:23:21.098Z,8.26
2023-02-15T20:25:50.055Z,8.22
2023-02-15T20:28:21.254Z,8.08
2023-02-15T20:30:50.213Z,8.10
2023-02-15T20:33:21.701Z,8.09
2023-02-15T20:35:51.264Z,8.11
2023-02-15T20:38:22.667Z,8.11
2023-02-15T20:41:08.586Z,8.03
2023-02-15T20:43:36.907Z,8.05
2023-02-15T20:46:05.895Z,8.06
2023-02-15T20:48:35.585Z,7.97
2023-02-15T20:51:05.768Z,7.99
2023-02-15T20:53:34.023Z,7.94
2023-02-15T20:56:02.423Z,7.87
2023-02-15T20:58:31.670Z,7.95
2023-02-15T21:01:00.897Z,7.90
2023-02-15T21:03:31.476Z,7.92
2023-02-15T21:06:01.738Z,7.85
2023-02-15T21:08:30.984Z,7.79
2023-02-15T21:11:00.742Z,7.65
2023-02-15T21:13:34.352Z,7.56
2023-02-15T21:16:04.381Z,7.58
2023-02-15T21:18:35.185Z,7.56
2023-02-15T21:21:06.911Z,7.59
2023-02-15T21:23:38.434Z,7.61
2023-02-15T21:26:07.585Z,7.55
2023-02-15T21:28:35.602Z,7.52
2023-02-15T21:31:04.029Z,7.45
2023-02-15T21:33:32.414Z,7.41
2023-02-15T21:36:05.601Z,7.47
2023-02-15T21:38:35.169Z,7.38
2023-02-15T21:41:23.387Z,7.26
2023-02-15T21:44:09.225Z,7.22
2023-02-15T21:46:55.108Z,7.14
2023-02-15T21:49:23.159Z,7.14
2023-02-15T21:52:09.706Z,7.13
2023-02-15T21:54:39.883Z,7.10
2023-02-15T21:57:13.749Z,7.04
2023-02-15T21:59:42.979Z,7.02
2023-02-15T22:02:30.447Z,6.99
2023-02-15T22:05:00.046Z,6.95
2023-02-15T22:07:28.806Z,6.98
2023-02-15T22:09:58.257Z,6.91
2023-02-15T22:12:26.354Z,6.93
2023-02-15T22:14:55.254Z,6.97
2023-02-15T22:17:26.823Z,6.96
2023-02-15T22:19:55.088Z,7.00
2023-02-15T22:22:23.271Z,7.02
2023-02-15T22:24:51.368Z,6.91
2023-02-15T22:27:25.632Z,6.80
2023-02-15T22:29:55.049Z,6.76
2023-02-15T22:32:25.545Z,6.79
2023-02-15T22:34:54.894Z,6.84
2023-02-15T22:37:23.228Z,6.78
2023-02-15T22:39:51.572Z,6.77
2023-02-15T22:42:27.347Z,6.71
2023-02-15T22:44:57.408Z,6.64
2023-02-15T22:47:28.946Z,6.66
2023-02-15T22:49:57.233Z,6.60
2023-02-15T22:52:25.429Z,6.55
2023-02-15T22:54:53.489Z,6.64
2023-02-15T22:57:30.216Z,6.75
2023-02-15T22:59:59.420Z,6.71
2023-02-15T23:02:27.817Z,6.71
2023-02-15T23:04:55.919Z,6.72
2023-02-15T23:07:24.075Z,6.58
2023-02-15T23:09:52.207Z,6.57
2023-02-15T23:12:28.171Z,6.61
2023-02-15T23:14:57.858Z,6.62
2023-02-15T23:17:25.946Z,6.54
2023-02-15T23:19:54.021Z,6.49
2023-02-15T23:22:22.291Z,6.51
2023-02-15T23:24:53.804Z,6.55
2023-02-15T23:27:39.758Z,6.44
2023-02-15T23:30:15.354Z,6.53
2023-02-15T23:32:43.513Z,6.58
2023-02-15T23:35:16.017Z,6.50
2023-02-15T23:37:44.268Z,6.60
2023-02-15T23:40:48.171Z,6.69
2023-02-15T23:43:22.658Z,6.66
2023-02-15T23:45:52.179Z,6.70
2023-02-15T23:48:32.665Z,6.68
2023-02-15T23:51:01.688Z,6.64
2023-02-15T23:53:30.084Z,6.66
2023-02-15T23:55:59.088Z,6.47
2023-02-15T23:58:37.520Z,6.52
